createdAt,value
2022-12-06T00:01:14.411Z,16.76
2022-12-06T00:03:43.925Z,17.14
2022-12-06T00:06:13.757Z,16.80
2022-12-06T00:08:41.935Z,16.73
2022-12-06T00:11:11.978Z,17.22
2022-12-06T00:13:42.270Z,16.81
2022-12-06T00:16:12.955Z,17.03
2022-12-06T00:18:43.416Z,17.02
2022-12-06T00:21:13.054Z,17.34
2022-12-06T00:23:42.419Z,16.81
2022-12-06T00:26:11.145Z,17.19
2022-12-06T00:28:39.715Z,17.30
2022-12-06T00:31:10.944Z,17.36
2022-12-06T00:33:39.175Z,17.29
2022-12-06T00:36:10.956Z,17.41
2022-12-06T00:38:38.826Z,17.54
2022-12-06T00:41:08.791Z,17.51
2022-12-06T00:43:38.152Z,16.97
2022-12-06T00:46:09.497Z,16.99
2022-12-06T00:48:37.491Z,17.52
2022-12-06T00:51:05.605Z,17.56
2022-12-06T00:53:33.575Z,17.45
2022-12-06T00:56:01.515Z,17.54
2022-12-06T00:58:29.504Z,17.49
2022-12-06T01:00:57.559Z,17.47
2022-12-06T01:03:29.704Z,17.60
2022-12-06T01:06:05.056Z,17.42
2022-12-06T01:08:33.537Z,17.25
2022-12-06T01:11:01.452Z,17.64
2022-12-06T01:13:30.070Z,17.48
2022-12-06T01:15:58.488Z,17.26
2022-12-06T01:18:27.750Z,17.50
2022-12-06T01:20:55.648Z,17.30
2022-12-06T01:23:23.540Z,17.20
2022-12-06T01:25:52.345Z,17.57
2022-12-06T01:28:20.321Z,17.35
2022-12-06T01:30:48.447Z,17.05
2022-12-06T01:33:16.396Z,17.31
2022-12-06T01:35:45.660Z,17.50
2022-12-06T01:38:13.906Z,17.60
2022-12-06T01:40:43.300Z,17.22
2022-12-06T01:43:36.599Z,17.22
2022-12-06T01:46:11.993Z,17.73
2022-12-06T01:48:41.693Z,17.41
2022-12-06T01:51:14.058Z,17.22
2022-12-06T01:53:45.263Z,17.56
2022-12-06T01:56:14.070Z,17.57
2022-12-06T01:58:45.553Z,17.45
2022-12-06T02:01:13.734Z,17.56
2022-12-06T02:03:42.307Z,17.25
2022-12-06T02:06:11.772Z,17.65
2022-12-06T02:08:40.476Z,17.55
2022-12-06T02:11:09.953Z,17.80
2022-12-06T02:13:38.498Z,17.45
2022-12-06T02:16:28.933Z,17.41
2022-12-06T02:19:01.622Z,17.59
2022-12-06T02:21:43.331Z,17.84
2022-12-06T02:24:40.282Z,17.73
2022-12-06T02:27:27.523Z,17.99
2022-12-06T02:30:09.620Z,17.75
2022-12-06T02:32:53.251Z,17.44
2022-12-06T02:35:31.507Z,17.39
2022-12-06T02:38:12.680Z,17.43
2022-12-06T02:40:47.158Z,17.61
2022-12-06T02:43:18.935Z,17.96
2022-12-06T02:45:52.253Z,17.59
2022-12-06T02:48:23.123Z,17.92
2022-12-06T02:50:55.802Z,17.76
2022-12-06T02:53:27.156Z,17.63
2022-12-06T02:55:56.203Z,17.49
2022-12-06T02:58:24.157Z,17.38
2022-12-06T03:00:54.595Z,17.88
2022-12-06T03:03:52.500Z,17.69
2022-12-06T03:06:46.580Z,17.81
2022-12-06T03:09:26.001Z,17.34
2022-12-06T03:12:01.007Z,17.51
2022-12-06T03:14:34.959Z,17.46
2022-12-06T03:17:13.496Z,17.41
2022-12-06T03:19:43.696Z,17.62
2022-12-06T03:22:15.687Z,17.83
2022-12-06T03:24:45.592Z,17.95
2022-12-06T03:27:19.073Z,17.50
2022-12-06T03:29:52.569Z,17.98
2022-12-06T03:32:24.136Z,17.54
2022-12-06T03:34:57.064Z,17.46
2022-12-06T03:37:28.930Z,17.74
2022-12-06T03:40:03.884Z,17.89
2022-12-06T03:42:32.926Z,17.65
2022-12-06T03:45:02.111Z,17.73
2022-12-06T03:47:35.122Z,17.62
2022-12-06T03:50:09.761Z,17.70
2022-12-06T03:52:37.753Z,17.93
2022-12-06T03:55:06.815Z,17.40
2022-12-06T03:57:34.991Z,17.63
2022-12-06T04:00:03.754Z,17.44
2022-12-06T04:02:39.355Z,17.53
2022-12-06T04:05:09.371Z,17.39
2022-12-06T04:07:37.423Z,17.43
2022-12-06T04:10:06.958Z,17.48
2022-12-06T04:12:54.142Z,17.52
2022-12-06T04:15:24.030Z,17.55
2022-12-06T04:18:09.584Z,17.80
2022-12-06T04:21:02.158Z,17.49
2022-12-06T04:23:31.768Z,17.43
2022-12-06T04:25:59.816Z,17.10
2022-12-06T04:28:45.739Z,17.26
2022-12-06T04:31:31.118Z,17.36
2022-12-06T04:34:17.006Z,17.20
2022-12-06T04:37:04.190Z,17.21
2022-12-06T04:39:32.679Z,17.47
2022-12-06T04:42:18.195Z,17.59
2022-12-06T04:44:46.195Z,17.41
2022-12-06T04:47:14.391Z,17.33
2022-12-06T04:49:42.315Z,16.99
2022-12-06T04:52:12.096Z,17.02
2022-12-06T04:54:40.728Z,17.52
2022-12-06T04:57:11.211Z,16.92
2022-12-06T04:59:40.308Z,17.32
2022-12-06T05:02:10.110Z,17.19
2022-12-06T05:04:38.059Z,16.88
2022-12-06T05:07:06.030Z,16.83
2022-12-06T05:09:35.327Z,17.11
2022-12-06T05:12:03.238Z,16.83
2022-12-06T05:14:31.350Z,16.82
2022-12-06T05:17:00.043Z,17.17
2022-12-06T05:19:28.497Z,16.88
2022-12-06T05:21:56.380Z,16.71
2022-12-06T05:24:24.380Z,17.07
2022-12-06T05:26:53.658Z,16.85
2022-12-06T05:29:21.606Z,17.07
2022-12-06T05:31:49.619Z,16.64
2022-12-06T05:34:17.625Z,16.71
2022-12-06T05:36:46.036Z,16.68
2022-12-06T05:39:14.023Z,16.79
2022-12-06T05:41:41.884Z,16.62
2022-12-06T05:44:12.089Z,16.94
2022-12-06T05:46:39.956Z,16.56
2022-12-06T05:49:07.933Z,17.02
2022-12-06T05:51:35.809Z,16.79
2022-12-06T05:54:06.603Z,16.91
2022-12-06T05:56:35.234Z,17.06
2022-12-06T05:59:03.382Z,17.14
2022-12-06T06:01:32.735Z,16.91
2022-12-06T06:04:01.774Z,16.96
2022-12-06T06:06:29.726Z,17.20
2022-12-06T06:08:57.679Z,17.13
2022-12-06T06:11:25.539Z,16.86
2022-12-06T06:13:54.499Z,17.10
2022-12-06T06:16:22.593Z,17.00
2022-12-06T06:18:52.652Z,16.55
2022-12-06T06:21:20.784Z,16.66
2022-12-06T06:23:48.715Z,16.49
2022-12-06T06:26:16.659Z,16.58
2022-12-06T06:28:44.581Z,16.99
2022-12-06T06:31:12.551Z,16.96
2022-12-06T06:33:40.439Z,16.48
2022-12-06T06:36:10.631Z,16.57
2022-12-06T06:38:38.938Z,16.62
2022-12-06T06:41:07.672Z,16.47
2022-12-06T06:43:35.733Z,16.88
2022-12-06T06:46:06.850Z,16.45
2022-12-06T06:48:38.545Z,16.48
2022-12-06T06:51:09.838Z,16.91
2022-12-06T06:53:38.013Z,16.37
2022-12-06T06:56:07.209Z,16.48
2022-12-06T06:58:35.288Z,16.38
2022-12-06T07:01:05.613Z,16.36
2022-12-06T07:03:33.611Z,16.59
2022-12-06T07:06:03.291Z,16.74
2022-12-06T07:08:33.028Z,16.74
2022-12-06T07:11:01.323Z,16.33
2022-12-06T07:13:30.275Z,16.63
2022-12-06T07:15:59.511Z,16.57
2022-12-06T07:18:27.428Z,16.38
2022-12-06T07:21:00.605Z,16.68
2022-12-06T07:23:29.068Z,16.40
2022-12-06T07:26:07.527Z,16.21
2022-12-06T07:28:37.141Z,16.54
2022-12-06T07:31:12.635Z,16.68
2022-12-06T07:33:42.659Z,16.70
2022-12-06T07:36:13.234Z,16.34
2022-12-06T07:38:42.830Z,16.32
2022-12-06T07:41:40.081Z,16.66
2022-12-06T07:44:32.733Z,16.23
2022-12-06T07:47:00.955Z,16.67
2022-12-06T07:49:29.548Z,16.61
2022-12-06T07:51:58.302Z,16.30
2022-12-06T07:54:26.603Z,16.22
2022-12-06T07:56:56.558Z,16.12
2022-12-06T07:59:24.878Z,16.63
2022-12-06T08:01:53.412Z,16.52
2022-12-06T08:04:21.931Z,16.92
2022-12-06T08:06:49.903Z,16.51
2022-12-06T08:09:17.961Z,16.50
2022-12-06T08:11:45.933Z,16.55
2022-12-06T08:14:15.886Z,16.52
2022-12-06T08:16:43.833Z,16.92
2022-12-06T08:19:11.715Z,16.96
2022-12-06T08:21:39.633Z,16.37
2022-12-06T08:24:08.122Z,16.93
2022-12-06T08:26:36.681Z,16.89
2022-12-06T08:29:05.137Z,16.78
2022-12-06T08:31:35.543Z,16.84
2022-12-06T08:34:04.141Z,16.69
2022-12-06T08:36:32.526Z,16.44
2022-12-06T08:39:02.109Z,16.72
2022-12-06T08:41:47.219Z,16.55
2022-12-06T08:44:16.628Z,16.28
2022-12-06T08:46:46.747Z,16.42
2022-12-06T08:49:16.107Z,16.44
2022-12-06T08:51:44.533Z,16.64
2022-12-06T08:54:15.071Z,16.19
2022-12-06T08:56:43.379Z,16.16
2022-12-06T08:59:11.972Z,16.08
2022-12-06T09:01:39.957Z,16.63
2022-12-06T09:04:10.825Z,16.55
2022-12-06T09:06:40.487Z,16.58
2022-12-06T09:09:09.595Z,16.30
2022-12-06T09:11:38.081Z,16.43
2022-12-06T09:14:07.343Z,16.61
2022-12-06T09:16:35.373Z,16.48
2022-12-06T09:19:03.426Z,16.61
2022-12-06T09:21:34.310Z,16.70
2022-12-06T09:24:02.315Z,16.72
2022-12-06T09:26:30.309Z,16.75
2022-12-06T09:28:59.824Z,16.36
2022-12-06T09:31:27.828Z,16.74
2022-12-06T09:33:55.921Z,16.54
2022-12-06T09:36:25.846Z,16.82
2022-12-06T09:38:58.413Z,16.66
2022-12-06T09:41:47.443Z,16.69
2022-12-06T09:44:32.784Z,16.50
2022-12-06T09:47:13.660Z,16.56
2022-12-06T09:49:52.467Z,16.81
2022-12-06T09:52:30.887Z,16.96
2022-12-06T09:55:19.819Z,16.67
2022-12-06T09:57:56.151Z,16.78
2022-12-06T10:00:25.562Z,16.88
2022-12-06T10:03:37.799Z,16.91
2022-12-06T10:06:12.357Z,17.00
2022-12-06T10:08:57.883Z,16.92
2022-12-06T10:11:44.539Z,16.79
2022-12-06T10:14:28.132Z,16.74
2022-12-06T10:17:08.668Z,17.19
2022-12-06T10:19:51.560Z,17.18
2022-12-06T10:22:28.431Z,17.11
2022-12-06T10:25:04.075Z,16.67
2022-12-06T10:27:39.409Z,17.11
2022-12-06T10:30:10.810Z,16.83
2022-12-06T10:32:54.440Z,16.48
2022-12-06T10:35:42.466Z,16.77
2022-12-06T10:38:23.099Z,16.46
2022-12-06T10:41:01.340Z,16.66
2022-12-06T10:43:37.730Z,16.94
2022-12-06T10:46:28.657Z,16.93
2022-12-06T10:49:07.545Z,16.54
2022-12-06T10:51:43.962Z,16.97
2022-12-06T10:54:24.617Z,16.84
2022-12-06T10:56:56.696Z,16.42
2022-12-06T10:59:37.589Z,16.33
2022-12-06T11:02:21.416Z,16.53
2022-12-06T11:04:51.268Z,16.91
2022-12-06T11:07:25.132Z,16.75
2022-12-06T11:09:57.271Z,16.51
2022-12-06T11:12:31.439Z,16.95
2022-12-06T11:15:07.284Z,16.61
2022-12-06T11:17:40.554Z,16.79
2022-12-06T11:20:17.120Z,17.17
2022-12-06T11:22:54.626Z,16.92
2022-12-06T11:25:28.146Z,16.97
2022-12-06T11:28:01.891Z,16.69
2022-12-06T11:30:33.780Z,16.82
2022-12-06T11:33:02.931Z,16.52
2022-12-06T11:35:30.940Z,16.82
2022-12-06T11:38:03.182Z,16.66
2022-12-06T11:40:34.244Z,16.66
2022-12-06T11:43:06.770Z,16.75
2022-12-06T11:45:40.814Z,16.73
2022-12-06T11:48:16.457Z,16.65
2022-12-06T11:50:45.901Z,16.65
2022-12-06T11:53:20.838Z,16.43
2022-12-06T11:55:53.490Z,16.41
2022-12-06T11:58:28.011Z,16.51
2022-12-06T12:01:01.534Z,16.53
2022-12-06T12:03:31.365Z,16.71
2022-12-06T12:06:10.151Z,16.59
2022-12-06T12:08:38.828Z,16.65
2022-12-06T12:11:06.879Z,16.53
2022-12-06T12:13:47.647Z,16.63
2022-12-06T12:16:20.007Z,16.15
2022-12-06T12:18:54.927Z,16.36
2022-12-06T12:21:36.195Z,16.58
2022-12-06T12:24:05.037Z,16.32
2022-12-06T12:26:41.509Z,16.80
2022-12-06T12:29:18.778Z,16.40
2022-12-06T12:31:56.938Z,16.58
2022-12-06T12:34:28.007Z,16.45
2022-12-06T12:36:58.830Z,16.83
2022-12-06T12:39:33.136Z,16.29
2022-12-06T12:42:02.784Z,16.38
2022-12-06T12:44:38.764Z,16.79
2022-12-06T12:47:18.822Z,16.53
2022-12-06T12:50:02.548Z,16.86
2022-12-06T12:52:36.610Z,16.71
2022-12-06T12:55:17.287Z,16.46
2022-12-06T12:57:47.758Z,16.35
2022-12-06T13:00:16.997Z,16.73
2022-12-06T13:02:51.338Z,16.71
2022-12-06T13:05:45.021Z,16.38
2022-12-06T13:08:16.546Z,16.76
2022-12-06T13:10:47.737Z,16.38
2022-12-06T13:13:19.454Z,16.42
2022-12-06T13:15:50.334Z,16.76
2022-12-06T13:18:23.750Z,16.26
2022-12-06T13:20:53.657Z,16.59
2022-12-06T13:23:25.233Z,16.65
2022-12-06T13:26:02.381Z,16.25
2022-12-06T13:28:33.993Z,16.46
2022-12-06T13:31:06.165Z,16.37
2022-12-06T13:33:40.884Z,16.51
2022-12-06T13:36:12.613Z,16.22
2022-12-06T13:38:42.474Z,16.41
2022-12-06T13:41:14.270Z,16.57
2022-12-06T13:43:51.713Z,16.47
2022-12-06T13:46:31.447Z,16.60
2022-12-06T13:49:03.576Z,16.77
2022-12-06T13:51:48.251Z,16.52
2022-12-06T13:54:37.103Z,16.63
2022-12-06T13:57:23.721Z,16.62
2022-12-06T13:59:51.974Z,16.55
2022-12-06T14:02:53.374Z,16.59
2022-12-06T14:08:33.467Z,16.75
2022-12-06T14:11:24.374Z,17.95
2022-12-06T14:14:03.342Z,19.03
2022-12-06T14:16:35.710Z,19.80
2022-12-06T14:19:13.464Z,20.03
2022-12-06T14:21:51.459Z,21.59
2022-12-06T14:24:32.348Z,23.32
2022-12-06T14:27:08.510Z,24.65
2022-12-06T14:29:36.514Z,25.80
2022-12-06T14:32:04.553Z,27.00
2022-12-06T14:34:34.508Z,28.55
2022-12-06T14:37:19.791Z,28.73
2022-12-06T14:39:52.824Z,28.22
2022-12-06T14:42:37.945Z,27.25
2022-12-06T14:45:08.220Z,26.40
2022-12-06T14:47:36.284Z,25.51
2022-12-06T14:50:26.084Z,24.61
2022-12-06T14:53:01.461Z,23.96
2022-12-06T14:55:30.762Z,23.60
2022-12-06T14:58:01.006Z,23.04
2022-12-06T15:00:35.979Z,22.46
2022-12-06T15:03:30.906Z,21.71
2022-12-06T15:06:15.066Z,21.29
2022-12-06T15:08:50.399Z,21.20
2022-12-06T15:11:48.666Z,20.81
2022-12-06T15:14:18.840Z,20.68
2022-12-06T15:16:58.570Z,20.59
2022-12-06T15:19:26.891Z,20.74
2022-12-06T15:21:55.477Z,20.52
2022-12-06T15:24:27.797Z,20.33
2022-12-06T15:26:56.187Z,19.73
2022-12-06T15:29:24.704Z,19.66
2022-12-06T15:31:55.709Z,19.72
2022-12-06T15:34:29.463Z,19.50
2022-12-06T15:37:30.356Z,19.81
2022-12-06T15:39:48.620Z,19.09
2022-12-06T15:42:19.994Z,19.00
2022-12-06T15:44:49.875Z,19.20
2022-12-06T15:47:19.896Z,18.79
2022-12-06T15:49:48.966Z,19.06
2022-12-06T15:52:18.136Z,19.79
2022-12-06T15:54:47.891Z,19.95
2022-12-06T15:57:15.936Z,19.72
2022-12-06T15:59:43.845Z,19.58
2022-12-06T16:02:15.882Z,19.71
2022-12-06T16:04:44.485Z,19.42
2022-12-06T16:07:18.662Z,19.40
2022-12-06T16:09:48.943Z,19.10
2022-12-06T16:12:17.336Z,18.83
2022-12-06T16:14:45.628Z,18.81
2022-12-06T16:17:13.514Z,18.93
2022-12-06T16:19:59.167Z,18.57
2022-12-06T16:22:40.975Z,18.81
2022-12-06T16:25:10.807Z,18.98
2022-12-06T16:27:38.778Z,18.52
2022-12-06T16:30:09.121Z,18.49
2022-12-06T16:32:37.583Z,18.40
2022-12-06T16:35:05.987Z,18.71
2022-12-06T16:37:33.998Z,18.66
2022-12-06T16:40:02.146Z,18.48
2022-12-06T16:42:31.491Z,18.27
2022-12-06T16:44:59.705Z,18.32
2022-12-06T16:49:54.609Z,18.73
2022-12-06T16:52:22.510Z,18.19
2022-12-06T16:54:50.479Z,18.01
2022-12-06T16:57:19.607Z,17.96
2022-12-06T16:59:49.378Z,17.88
2022-12-06T17:02:27.721Z,18.21
2022-12-06T17:04:56.707Z,17.64
2022-12-06T17:07:24.771Z,18.01
2022-12-06T17:09:52.725Z,18.06
2022-12-06T17:12:21.340Z,18.15
2022-12-06T17:14:50.747Z,18.11
2022-12-06T17:17:21.609Z,17.74
2022-12-06T17:19:50.635Z,17.58
2022-12-06T17:22:19.059Z,17.91
2022-12-06T17:24:47.139Z,17.58
2022-12-06T17:27:15.695Z,17.43
2022-12-06T17:29:44.449Z,17.59
2022-12-06T17:32:14.176Z,17.86
2022-12-06T17:34:42.059Z,17.71
2022-12-06T17:37:10.140Z,17.26
2022-12-06T17:39:38.102Z,17.23
2022-12-06T17:42:23.736Z,17.56
2022-12-06T17:44:51.919Z,17.17
2022-12-06T17:47:21.340Z,17.66
2022-12-06T17:49:49.293Z,17.13
2022-12-06T17:52:17.802Z,18.03
2022-12-06T17:54:45.948Z,19.46
2022-12-06T17:57:17.619Z,20.31
2022-12-06T17:59:46.501Z,21.05
2022-12-06T18:02:17.837Z,21.04
2022-12-06T18:04:48.508Z,21.13
2022-12-06T18:07:17.460Z,21.62
2022-12-06T18:09:45.978Z,21.24
2022-12-06T18:12:16.773Z,21.62
2022-12-06T18:14:44.831Z,21.62
2022-12-06T18:17:13.405Z,20.90
2022-12-06T18:19:41.544Z,21.08
2022-12-06T18:22:10.787Z,20.57
2022-12-06T18:24:38.822Z,20.31
2022-12-06T18:27:07.784Z,20.58
2022-12-06T18:29:36.287Z,20.34
2022-12-06T18:32:04.638Z,19.87
2022-12-06T18:34:32.713Z,19.96
2022-12-06T18:37:00.734Z,19.99
2022-12-06T18:39:30.012Z,19.77
2022-12-06T18:41:57.917Z,19.43
2022-12-06T18:44:26.801Z,19.08
2022-12-06T18:46:54.690Z,19.36
2022-12-06T18:49:22.548Z,18.78
2022-12-06T18:51:50.432Z,18.95
2022-12-06T18:54:18.607Z,18.99
2022-12-06T18:56:47.914Z,19.01
2022-12-06T18:59:15.935Z,18.90
2022-12-06T19:01:43.907Z,18.31
2022-12-06T19:04:16.436Z,18.55
2022-12-06T19:06:45.027Z,18.15
2022-12-06T19:09:14.485Z,18.21
2022-12-06T19:11:45.796Z,18.23
2022-12-06T19:14:16.455Z,17.97
2022-12-06T19:16:46.565Z,18.36
2022-12-06T19:19:18.540Z,18.29
2022-12-06T19:21:47.654Z,17.97
2022-12-06T19:24:17.405Z,18.17
2022-12-06T19:26:45.684Z,18.16
2022-12-06T19:29:15.595Z,18.01
2022-12-06T19:31:43.763Z,17.98
2022-12-06T19:34:17.029Z,18.02
2022-12-06T19:36:45.482Z,17.69
2022-12-06T19:39:14.927Z,18.00
2022-12-06T19:42:00.932Z,17.97
2022-12-06T19:44:31.091Z,17.65
2022-12-06T19:46:59.583Z,17.63
2022-12-06T19:49:28.535Z,17.70
2022-12-06T19:51:57.218Z,17.61
2022-12-06T19:54:26.696Z,17.44
2022-12-06T19:56:56.961Z,17.58
2022-12-06T19:59:27.528Z,17.39
2022-12-06T20:01:58.330Z,17.78
2022-12-06T20:04:28.850Z,17.45
2022-12-06T20:06:57.419Z,17.62
2022-12-06T20:09:27.922Z,17.58
2022-12-06T20:12:03.466Z,17.49
2022-12-06T20:14:37.787Z,17.11
2022-12-06T20:17:09.384Z,17.32
2022-12-06T20:19:37.503Z,17.31
2022-12-06T20:22:05.791Z,16.93
2022-12-06T20:24:34.385Z,17.16
2022-12-06T20:27:02.890Z,17.21
2022-12-06T20:29:32.552Z,17.08
2022-12-06T20:32:01.349Z,16.97
2022-12-06T20:34:34.397Z,17.13
2022-12-06T20:37:04.626Z,16.89
2022-12-06T20:39:35.531Z,17.19
2022-12-06T20:42:05.996Z,16.77
2022-12-06T20:44:34.871Z,16.99
2022-12-06T20:47:02.930Z,17.10
2022-12-06T20:49:32.332Z,17.36
2022-12-06T20:52:02.751Z,16.96
2022-12-06T20:54:30.839Z,16.98
2022-12-06T20:56:58.765Z,17.09
2022-12-06T20:59:26.896Z,17.22
2022-12-06T21:01:55.000Z,17.23
2022-12-06T21:04:23.083Z,17.03
2022-12-06T21:06:52.367Z,16.91
2022-12-06T21:09:20.360Z,16.70
2022-12-06T21:11:48.443Z,17.18
2022-12-06T21:14:17.988Z,16.85
2022-12-06T21:16:45.936Z,17.00
2022-12-06T21:19:17.867Z,16.91
2022-12-06T21:21:47.571Z,16.98
2022-12-06T21:24:20.191Z,16.84
2022-12-06T21:26:49.116Z,16.73
2022-12-06T21:29:17.945Z,16.85
2022-12-06T21:31:46.391Z,16.45
2022-12-06T21:34:14.336Z,16.40
2022-12-06T21:36:42.711Z,16.85
2022-12-06T21:39:12.499Z,16.45
2022-12-06T21:41:42.350Z,16.37
2022-12-06T21:44:10.843Z,16.48
2022-12-06T21:46:39.030Z,16.62
2022-12-06T21:49:07.159Z,16.72
2022-12-06T21:51:35.160Z,16.69
2022-12-06T21:54:03.188Z,16.67
2022-12-06T21:56:33.595Z,16.91
2022-12-06T21:59:03.363Z,16.86
2022-12-06T22:01:32.673Z,17.29
2022-12-06T22:04:04.550Z,17.21
2022-12-06T22:06:33.629Z,17.30
2022-12-06T22:09:03.351Z,17.24
2022-12-06T22:11:31.651Z,17.29
2022-12-06T22:14:00.192Z,17.31
2022-12-06T22:16:30.369Z,17.21
2022-12-06T22:18:59.132Z,17.32
2022-12-06T22:21:28.804Z,17.74
2022-12-06T22:23:58.532Z,17.66
2022-12-06T22:26:29.378Z,17.48
2022-12-06T22:28:58.760Z,17.46
2022-12-06T22:31:30.762Z,17.44
2022-12-06T22:33:59.401Z,17.86
2022-12-06T22:36:28.588Z,18.10
2022-12-06T22:38:59.732Z,18.46
2022-12-06T22:41:29.810Z,19.08
2022-12-06T22:43:59.890Z,19.41
2022-12-06T22:46:30.746Z,19.01
2022-12-06T22:48:59.987Z,19.02
2022-12-06T22:51:29.772Z,18.84
2022-12-06T22:53:59.156Z,19.20
2022-12-06T22:56:28.153Z,19.15
2022-12-06T22:58:57.162Z,19.12
2022-12-06T23:01:27.327Z,19.41
2022-12-06T23:03:57.046Z,19.28
2022-12-06T23:06:26.371Z,19.35
2022-12-06T23:08:55.253Z,19.38
2022-12-06T23:11:24.859Z,19.46
2022-12-06T23:13:52.987Z,20.58
2022-12-06T23:16:23.301Z,20.29
2022-12-06T23:18:51.852Z,19.88
2022-12-06T23:21:23.373Z,20.65
2022-12-06T23:23:53.092Z,20.54
2022-12-06T23:26:23.137Z,20.31
2022-12-06T23:28:51.474Z,19.91
2022-12-06T23:31:21.567Z,20.60
2022-12-06T23:33:53.229Z,20.40
2022-12-06T23:36:25.701Z,19.97
2022-12-06T23:38:53.852Z,20.10
2022-12-06T23:41:24.069Z,19.47
2022-12-06T23:43:53.392Z,19.08
2022-12-06T23:46:24.808Z,19.25
2022-12-06T23:48:53.569Z,18.86
2022-12-06T23:51:24.811Z,18.37
2022-12-06T23:53:54.168Z,18.66
2022-12-06T23:56:23.418Z,18.10
2022-12-06T23:58:52.330Z,17.99
